createdAt,value
2022-08-17T00:02:26.557Z,13.25
2022-08-17T00:04:55.035Z,15.98
2022-08-17T00:07:22.543Z,13.20
2022-08-17T00:09:49.442Z,14.55
2022-08-17T00:12:41.557Z,16.10
2022-08-17T00:15:05.831Z,15.02
2022-08-17T00:17:35.304Z,16.20
2022-08-17T00:20:02.197Z,17.02
2022-08-17T00:22:34.266Z,16.83
2022-08-17T00:25:08.874Z,16.38
2022-08-17T00:27:35.930Z,16.67
2022-08-17T00:30:05.248Z,15.05
2022-08-17T00:33:16.005Z,15.93
2022-08-17T00:35:27.807Z,15.25
2022-08-17T00:37:55.198Z,16.83
2022-08-17T00:40:22.572Z,16.45
2022-08-17T00:42:53.305Z,16.70
2022-08-17T00:45:20.562Z,17.25
2022-08-17T00:47:49.353Z,16.55
2022-08-17T00:50:18.701Z,15.45
2022-08-17T00:52:55.548Z,15.63
2022-08-17T00:55:24.085Z,16.70
2022-08-17T00:57:56.347Z,17.52
2022-08-17T01:00:39.389Z,15.70
2022-08-17T01:03:13.302Z,15.40
2022-08-17T01:05:43.770Z,15.60
2022-08-17T01:08:15.281Z,17.42
2022-08-17T01:10:57.328Z,15.95
2022-08-17T01:13:43.212Z,15.13
2022-08-17T01:16:31.484Z,15.32
2022-08-17T01:19:02.089Z,16.10
2022-08-17T01:21:48.632Z,16.27
2022-08-17T01:24:16.508Z,15.32
2022-08-17T01:26:44.694Z,16.77
2022-08-17T01:29:12.662Z,16.02
2022-08-17T01:31:45.531Z,14.65
2022-08-17T01:34:14.835Z,14.35
2022-08-17T01:36:44.546Z,14.35
2022-08-17T01:39:30.783Z,14.50
2022-08-17T01:42:50.242Z,15.48
2022-08-17T01:45:25.194Z,15.20
2022-08-17T01:47:53.639Z,15.52
2022-08-17T01:50:32.547Z,15.13
2022-08-17T01:53:04.658Z,15.55
2022-08-17T01:55:41.439Z,14.57
2022-08-17T01:58:09.714Z,14.15
2022-08-17T02:00:46.764Z,14.15
2022-08-17T02:03:25.657Z,13.55
2022-08-17T02:05:53.320Z,13.98
2022-08-17T02:08:39.060Z,15.02
2022-08-17T02:11:14.620Z,17.02
2022-08-17T02:13:42.247Z,18.33
2022-08-17T02:16:09.157Z,16.05
2022-08-17T02:18:35.966Z,16.63
2022-08-17T02:21:04.054Z,16.92
2022-08-17T02:23:34.374Z,14.13
2022-08-17T02:26:02.063Z,14.32
2022-08-17T02:28:29.391Z,12.80
2022-08-17T02:31:00.886Z,14.13
2022-08-17T02:33:42.545Z,14.73
2022-08-17T02:36:13.184Z,14.80
2022-08-17T02:38:41.046Z,16.58
2022-08-17T02:41:08.029Z,16.85
2022-08-17T02:43:35.034Z,18.88
2022-08-17T02:46:01.852Z,18.80
2022-08-17T02:48:31.260Z,19.52
2022-08-17T02:51:00.195Z,20.58
2022-08-17T02:53:27.521Z,20.98
2022-08-17T02:58:35.458Z,20.85
2022-08-17T03:01:06.024Z,21.60
2022-08-17T03:03:33.865Z,20.92
2022-08-17T03:06:01.089Z,21.23
2022-08-17T03:08:28.410Z,21.48
2022-08-17T03:10:55.552Z,20.40
2022-08-17T03:13:22.970Z,21.70
2022-08-17T03:15:50.529Z,20.95
2022-08-17T03:18:25.611Z,20.50
2022-08-17T03:20:59.922Z,22.63
2022-08-17T03:23:29.746Z,22.35
2022-08-17T03:25:58.673Z,22.55
2022-08-17T03:28:26.062Z,22.00
2022-08-17T03:30:52.978Z,23.17
2022-08-17T03:33:20.636Z,23.70
2022-08-17T03:35:47.737Z,19.77
2022-08-17T03:38:16.967Z,21.63
2022-08-17T03:40:58.908Z,22.83
2022-08-17T03:43:30.082Z,19.60
2022-08-17T03:46:28.294Z,21.55
2022-08-17T03:49:22.996Z,20.25
2022-08-17T03:52:08.385Z,18.48
2022-08-17T03:54:53.843Z,19.83
2022-08-17T03:57:20.705Z,17.33
2022-08-17T03:59:49.447Z,16.52
2022-08-17T04:02:21.209Z,16.20
2022-08-17T04:04:50.819Z,17.33
2022-08-17T04:07:22.994Z,15.57
2022-08-17T04:09:50.149Z,16.75
2022-08-17T04:12:19.137Z,17.40
2022-08-17T04:14:53.722Z,18.80
2022-08-17T04:17:24.082Z,19.23
2022-08-17T04:19:51.089Z,19.42
2022-08-17T04:22:30.954Z,18.95
2022-08-17T04:25:08.141Z,20.63
2022-08-17T04:27:35.653Z,19.45
2022-08-17T04:30:02.568Z,21.83
2022-08-17T04:33:00.592Z,21.48
2022-08-17T04:35:25.541Z,21.52
2022-08-17T04:37:52.805Z,21.48
2022-08-17T04:40:40.114Z,19.73
2022-08-17T04:43:10.404Z,22.00
2022-08-17T04:45:55.544Z,21.63
2022-08-17T04:48:34.738Z,19.75
2022-08-17T04:51:07.516Z,19.88
2022-08-17T04:53:34.356Z,19.67
2022-08-17T04:56:01.217Z,21.48
2022-08-17T04:58:28.098Z,20.10
2022-08-17T05:00:54.942Z,20.13
2022-08-17T05:03:22.116Z,20.80
2022-08-17T05:05:52.086Z,20.20
2022-08-17T05:08:20.679Z,19.48
2022-08-17T05:10:48.587Z,20.50
2022-08-17T05:13:23.919Z,20.05
2022-08-17T05:15:58.198Z,20.38
2022-08-17T05:18:25.305Z,19.23
2022-08-17T05:20:52.805Z,19.23
2022-08-17T05:23:22.595Z,19.33
2022-08-17T05:25:53.926Z,19.05
2022-08-17T05:28:24.297Z,19.15
2022-08-17T05:30:56.903Z,17.65
2022-08-17T05:33:28.123Z,17.75
2022-08-17T05:35:57.457Z,17.92
2022-08-17T05:38:27.545Z,17.00
2022-08-17T05:40:55.241Z,17.40
2022-08-17T05:43:28.950Z,16.25
2022-08-17T05:46:26.257Z,16.17
2022-08-17T05:48:57.589Z,17.08
2022-08-17T05:51:42.901Z,16.35
2022-08-17T05:54:39.876Z,16.98
2022-08-17T05:57:20.959Z,15.57
2022-08-17T06:00:16.939Z,16.48
2022-08-17T06:03:05.958Z,16.92
2022-08-17T06:06:05.949Z,16.80
2022-08-17T06:09:06.696Z,17.00
2022-08-17T06:11:48.051Z,17.77
2022-08-17T06:14:51.039Z,17.60
2022-08-17T06:17:22.525Z,16.92
2022-08-17T06:20:07.958Z,16.17
2022-08-17T06:22:42.101Z,18.05
2022-08-17T06:25:18.618Z,16.70
2022-08-17T06:27:58.439Z,17.38
2022-08-17T06:30:29.023Z,15.20
2022-08-17T06:33:27.705Z,13.65
2022-08-17T06:36:02.587Z,12.45
2022-08-17T06:38:46.900Z,12.93
2022-08-17T06:41:29.007Z,12.93
2022-08-17T06:44:10.127Z,14.23
2022-08-17T06:46:48.411Z,13.40
2022-08-17T06:49:28.555Z,9.98
2022-08-17T06:52:12.294Z,12.63
2022-08-17T06:55:07.059Z,11.80
2022-08-17T06:57:38.221Z,12.88
2022-08-17T07:00:16.946Z,13.40
2022-08-17T07:03:08.495Z,12.23
2022-08-17T07:05:59.965Z,13.65
2022-08-17T07:08:35.038Z,12.05
2022-08-17T07:11:09.516Z,13.05
2022-08-17T07:14:05.331Z,12.30
2022-08-17T07:16:46.194Z,12.57
2022-08-17T07:19:16.722Z,13.85
2022-08-17T07:21:56.267Z,12.05
2022-08-17T07:24:30.293Z,13.73
2022-08-17T07:27:16.541Z,13.88
2022-08-17T07:29:46.911Z,13.00
2022-08-17T07:32:18.532Z,13.27
2022-08-17T07:35:08.465Z,13.55
2022-08-17T07:37:53.934Z,13.68
2022-08-17T07:40:35.244Z,12.25
2022-08-17T07:43:11.463Z,13.68
2022-08-17T07:46:31.137Z,13.43
2022-08-17T07:49:23.869Z,13.23
2022-08-17T07:51:50.542Z,14.63
2022-08-17T07:54:22.455Z,13.90
2022-08-17T07:56:53.658Z,14.68
2022-08-17T07:59:23.670Z,14.55
2022-08-17T08:01:58.124Z,14.35
2022-08-17T08:04:59.007Z,14.90
2022-08-17T08:07:21.751Z,14.27
2022-08-17T08:10:07.489Z,15.45
2022-08-17T08:12:46.975Z,16.83
2022-08-17T08:15:33.355Z,16.90
2022-08-17T08:18:03.733Z,17.27
2022-08-17T08:20:53.072Z,15.95
2022-08-17T08:23:37.133Z,18.08
2022-08-17T08:26:20.320Z,17.35
2022-08-17T08:29:23.335Z,17.90
2022-08-17T08:32:13.521Z,16.63
2022-08-17T08:35:02.006Z,16.67
2022-08-17T08:37:35.532Z,17.90
2022-08-17T08:40:09.884Z,18.75
2022-08-17T08:42:37.136Z,17.85
2022-08-17T08:45:38.071Z,19.13
2022-08-17T08:48:52.945Z,19.20
2022-08-17T08:51:30.182Z,19.05
2022-08-17T08:54:14.454Z,19.48
2022-08-17T08:57:21.889Z,20.17
2022-08-17T09:00:13.269Z,19.40
2022-08-17T09:02:46.087Z,18.92
2022-08-17T09:05:31.778Z,21.47
2022-08-17T09:08:20.955Z,21.38
2022-08-17T09:11:03.380Z,23.33
2022-08-17T09:13:58.789Z,23.50
2022-08-17T09:16:37.514Z,24.85
2022-08-17T09:19:15.763Z,23.23
2022-08-17T09:21:48.233Z,24.40
2022-08-17T09:24:43.666Z,24.27
2022-08-17T09:27:26.603Z,21.45
2022-08-17T09:29:59.912Z,22.63
2022-08-17T09:32:42.183Z,22.27
2022-08-17T09:35:19.871Z,24.13
2022-08-17T09:38:19.918Z,23.25
2022-08-17T09:41:09.883Z,23.63
2022-08-17T09:43:49.082Z,22.90
2022-08-17T09:46:21.225Z,23.67
2022-08-17T09:49:01.757Z,22.75
2022-08-17T09:51:40.002Z,22.23
2022-08-17T09:54:38.161Z,23.42
2022-08-17T09:57:30.284Z,22.05
2022-08-17T10:00:25.055Z,21.45
2022-08-17T10:06:01.904Z,21.38
2022-08-17T10:08:52.414Z,20.35
2022-08-17T10:11:33.432Z,19.60
2022-08-17T10:14:37.381Z,18.23
2022-08-17T10:17:20.647Z,18.20
2022-08-17T10:19:57.792Z,19.05
2022-08-17T10:22:59.298Z,18.23
2022-08-17T10:26:00.287Z,17.25
2022-08-17T10:28:32.356Z,19.55
2022-08-17T10:31:34.428Z,17.60
2022-08-17T10:34:28.617Z,16.73
2022-08-17T10:37:05.725Z,17.73
2022-08-17T10:39:57.334Z,17.33
2022-08-17T10:42:30.809Z,16.60
2022-08-17T10:45:21.414Z,16.40
2022-08-17T10:48:16.579Z,16.25
2022-08-17T10:51:00.447Z,17.98
2022-08-17T10:53:33.506Z,16.23
2022-08-17T10:56:13.483Z,17.58
2022-08-17T10:58:58.441Z,16.00
2022-08-17T11:01:34.116Z,15.75
2022-08-17T11:04:27.250Z,15.50
2022-08-17T11:07:14.501Z,14.95
2022-08-17T11:10:03.209Z,15.65
2022-08-17T11:12:45.494Z,15.95
2022-08-17T11:15:24.674Z,14.57
2022-08-17T11:18:05.086Z,14.68
2022-08-17T11:21:07.119Z,14.60
2022-08-17T11:24:06.420Z,14.32
2022-08-17T11:26:36.239Z,13.07
2022-08-17T11:29:16.455Z,14.07
2022-08-17T11:31:58.137Z,13.50
2022-08-17T11:34:28.748Z,14.73
2022-08-17T11:37:17.477Z,12.40
2022-08-17T11:40:04.503Z,11.95
2022-08-17T11:43:03.515Z,11.77
2022-08-17T11:45:37.182Z,11.02
2022-08-17T11:49:05.403Z,11.57
2022-08-17T11:51:56.487Z,11.65
2022-08-17T11:54:45.126Z,10.90
2022-08-17T11:57:27.242Z,11.27
2022-08-17T11:59:59.212Z,11.35
2022-08-17T12:02:32.694Z,12.18
2022-08-17T12:07:33.193Z,11.73
2022-08-17T12:10:00.996Z,11.38
2022-08-17T12:12:33.648Z,11.05
2022-08-17T12:15:10.750Z,11.77
2022-08-17T12:17:42.365Z,11.70
2022-08-17T12:20:16.137Z,11.27
2022-08-17T12:22:55.820Z,12.38
2022-08-17T12:26:09.319Z,11.40
2022-08-17T12:28:39.035Z,11.65
2022-08-17T12:31:31.575Z,12.07
2022-08-17T12:34:00.521Z,12.70
2022-08-17T12:36:29.014Z,11.60
2022-08-17T12:39:13.772Z,11.70
2022-08-17T12:41:44.447Z,10.73
2022-08-17T12:44:12.099Z,11.55
2022-08-17T12:46:48.197Z,10.73
2022-08-17T12:49:18.074Z,12.23
2022-08-17T12:51:48.645Z,11.27
2022-08-17T12:54:25.045Z,11.27
2022-08-17T12:56:52.206Z,11.05
2022-08-17T12:59:30.463Z,11.98
2022-08-17T13:01:57.818Z,11.82
2022-08-17T13:04:26.631Z,11.82
2022-08-17T13:06:59.678Z,11.85
2022-08-17T13:09:40.326Z,11.65
2022-08-17T13:12:09.127Z,11.00
2022-08-17T13:14:36.202Z,11.55
2022-08-17T13:17:08.542Z,12.02
2022-08-17T13:19:49.591Z,12.55
2022-08-17T13:22:18.285Z,12.00
2022-08-17T13:25:07.400Z,12.32
2022-08-17T13:27:34.385Z,11.35
2022-08-17T13:30:07.006Z,11.70
2022-08-17T13:32:43.695Z,12.40
2022-08-17T13:35:41.251Z,12.48
2022-08-17T13:38:12.515Z,11.85
2022-08-17T13:40:41.722Z,11.13
2022-08-17T13:43:10.583Z,12.65
2022-08-17T13:46:08.169Z,11.23
2022-08-17T13:48:35.728Z,11.20
2022-08-17T13:51:12.611Z,12.07
2022-08-17T13:53:40.482Z,11.70
2022-08-17T13:56:46.586Z,11.35
2022-08-17T13:59:53.443Z,10.98
2022-08-17T14:02:19.389Z,11.10
2022-08-17T14:04:48.071Z,10.95
2022-08-17T14:07:16.312Z,14.20
2022-08-17T14:09:54.103Z,11.90
2022-08-17T14:12:26.630Z,11.93
2022-08-17T14:14:58.849Z,11.23
2022-08-17T14:17:28.957Z,11.82
2022-08-17T14:19:56.097Z,13.10
2022-08-17T14:22:30.898Z,12.05
2022-08-17T14:24:59.613Z,12.98
2022-08-17T14:27:28.082Z,12.10
2022-08-17T14:29:55.805Z,12.32
2022-08-17T14:32:28.863Z,11.43
2022-08-17T14:34:57.619Z,11.35
2022-08-17T14:37:27.771Z,10.57
2022-08-17T14:39:56.297Z,12.38
2022-08-17T14:42:26.345Z,12.63
2022-08-17T14:44:54.484Z,13.23
2022-08-17T14:47:21.417Z,11.27
2022-08-17T14:49:48.663Z,12.95
2022-08-17T14:52:21.459Z,12.95
2022-08-17T14:54:53.035Z,12.95
2022-08-17T14:57:33.687Z,13.23
2022-08-17T15:00:05.334Z,12.55
2022-08-17T15:02:45.431Z,12.18
2022-08-17T15:05:16.069Z,13.00
2022-08-17T15:07:48.744Z,12.05
2022-08-17T15:10:19.451Z,12.23
2022-08-17T15:12:46.445Z,13.18
2022-08-17T15:15:15.750Z,12.32
2022-08-17T15:17:55.011Z,12.70
2022-08-17T15:20:28.180Z,11.82
2022-08-17T15:22:57.116Z,11.82
2022-08-17T15:25:25.285Z,10.18
2022-08-17T15:27:52.695Z,9.68
2022-08-17T15:30:20.540Z,4.90
2022-08-17T15:32:54.043Z,5.07
2022-08-17T15:35:27.213Z,6.18
2022-08-17T15:38:04.673Z,6.10
2022-08-17T15:40:36.772Z,6.60
2022-08-17T15:43:11.742Z,5.40
2022-08-17T15:45:39.452Z,5.35
2022-08-17T15:48:43.529Z,6.60
2022-08-17T15:51:35.284Z,5.90
2022-08-17T15:54:19.298Z,5.70
2022-08-17T15:56:49.823Z,5.95
2022-08-17T15:59:16.661Z,5.13
2022-08-17T16:03:15.177Z,6.43
2022-08-17T16:04:31.943Z,5.82
2022-08-17T16:06:59.680Z,5.53
2022-08-17T16:09:26.902Z,5.93
2022-08-17T16:11:56.145Z,6.00
2022-08-17T16:14:25.804Z,6.93
2022-08-17T16:17:03.200Z,6.95
2022-08-17T16:19:30.297Z,6.78
2022-08-17T16:21:57.101Z,6.90
2022-08-17T16:24:23.992Z,7.35
2022-08-17T16:26:51.137Z,5.72
2022-08-17T16:29:18.706Z,7.35
2022-08-17T16:31:45.991Z,7.03
2022-08-17T16:34:16.970Z,6.00
2022-08-17T16:36:55.128Z,6.20
2022-08-17T16:39:28.023Z,5.90
2022-08-17T16:41:56.624Z,7.05
2022-08-17T16:44:23.802Z,6.05
2022-08-17T16:46:50.719Z,6.28
2022-08-17T16:49:35.466Z,7.00
2022-08-17T16:52:06.767Z,7.03
2022-08-17T16:54:35.180Z,7.28
2022-08-17T16:57:04.843Z,7.13
2022-08-17T16:59:40.769Z,7.03
2022-08-17T17:02:13.130Z,6.57
2022-08-17T17:04:59.982Z,6.18
2022-08-17T17:07:43.616Z,6.25
2022-08-17T17:10:16.929Z,6.95
2022-08-17T17:13:03.133Z,6.38
2022-08-17T17:15:43.840Z,6.70
2022-08-17T17:18:12.867Z,7.10
2022-08-17T17:20:50.069Z,7.78
2022-08-17T17:23:36.070Z,8.05
2022-08-17T17:26:17.448Z,8.90
2022-08-17T17:29:06.342Z,8.35
2022-08-17T17:31:39.287Z,8.75
2022-08-17T17:34:10.046Z,9.68
2022-08-17T17:36:58.635Z,8.80
2022-08-17T17:39:52.782Z,9.05
2022-08-17T17:42:24.442Z,10.23
2022-08-17T17:45:09.563Z,10.05
2022-08-17T17:47:37.141Z,10.57
2022-08-17T17:50:06.835Z,12.13
2022-08-17T17:52:41.075Z,11.95
2022-08-17T17:55:36.561Z,14.05
2022-08-17T17:58:19.565Z,13.70
2022-08-17T18:01:28.264Z,14.63
2022-08-17T18:04:20.688Z,13.90
2022-08-17T18:06:56.969Z,14.23
2022-08-17T18:09:33.964Z,14.57
2022-08-17T18:12:19.766Z,14.57
2022-08-17T18:14:52.344Z,14.70
2022-08-17T18:17:20.247Z,13.90
2022-08-17T18:19:48.177Z,13.52
2022-08-17T18:22:18.774Z,15.13
2022-08-17T18:24:48.162Z,16.08
2022-08-17T18:27:36.692Z,15.25
2022-08-17T18:30:12.624Z,14.50
2022-08-17T18:32:42.389Z,13.48
2022-08-17T18:35:14.103Z,14.32
2022-08-17T18:37:53.202Z,14.85
2022-08-17T18:40:20.205Z,14.13
2022-08-17T18:43:08.066Z,14.52
2022-08-17T18:45:39.544Z,14.55
2022-08-17T18:48:20.159Z,13.75
2022-08-17T18:50:48.037Z,13.00
2022-08-17T18:53:41.171Z,13.65
2022-08-17T18:56:21.288Z,12.00
2022-08-17T18:59:22.356Z,11.27
2022-08-17T19:02:36.025Z,11.93
2022-08-17T19:05:38.370Z,12.23
2022-08-17T19:08:18.476Z,14.65
2022-08-17T19:10:47.414Z,13.35
2022-08-17T19:13:24.905Z,13.23
2022-08-17T19:16:17.999Z,13.35
2022-08-17T19:19:06.869Z,14.73
2022-08-17T19:21:41.399Z,15.13
2022-08-17T19:24:20.024Z,14.00
2022-08-17T19:26:56.536Z,14.32
2022-08-17T19:29:36.938Z,14.57
2022-08-17T19:32:08.840Z,15.10
2022-08-17T19:34:38.110Z,14.88
2022-08-17T19:37:06.757Z,15.77
2022-08-17T19:39:45.827Z,14.57
2022-08-17T19:42:47.277Z,13.73
2022-08-17T19:45:40.059Z,13.93
2022-08-17T19:48:45.794Z,14.85
2022-08-17T19:51:23.794Z,12.98
2022-08-17T19:54:06.206Z,13.35
2022-08-17T19:56:37.566Z,12.87
2022-08-17T19:59:23.489Z,14.07
2022-08-17T20:02:01.263Z,13.35
2022-08-17T20:04:32.287Z,12.93
2022-08-17T20:07:26.197Z,13.63
2022-08-17T20:10:08.162Z,14.37
2022-08-17T20:12:38.327Z,13.80
2022-08-17T20:15:29.836Z,13.52
2022-08-17T20:18:05.642Z,14.77
2022-08-17T20:20:41.778Z,14.35
2022-08-17T20:23:29.979Z,14.10
2022-08-17T20:26:05.780Z,14.15
2022-08-17T20:28:35.424Z,14.52
2022-08-17T20:31:25.446Z,13.65
2022-08-17T20:33:55.163Z,15.38
2022-08-17T20:36:24.633Z,15.93
2022-08-17T20:38:55.942Z,16.80
2022-08-17T20:41:24.477Z,15.10
2022-08-17T20:44:04.185Z,16.10
2022-08-17T20:46:36.899Z,17.02
2022-08-17T20:49:16.397Z,17.08
2022-08-17T20:52:01.689Z,18.27
2022-08-17T20:54:46.740Z,17.95
2022-08-17T20:57:31.915Z,18.80
2022-08-17T21:00:17.483Z,20.38
2022-08-17T21:02:49.792Z,21.05
2022-08-17T21:05:34.295Z,19.40
2022-08-17T21:08:30.415Z,21.42
2022-08-17T21:10:59.989Z,20.67
2022-08-17T21:13:37.739Z,23.00
2022-08-17T21:16:29.158Z,22.02
2022-08-17T21:19:22.179Z,20.92
2022-08-17T21:22:00.282Z,22.65
2022-08-17T21:24:51.655Z,21.73
2022-08-17T21:27:47.827Z,22.52
2022-08-17T21:30:44.500Z,21.73
2022-08-17T21:33:18.406Z,22.13
2022-08-17T21:35:51.868Z,21.63
2022-08-17T21:38:23.447Z,21.17
2022-08-17T21:40:52.850Z,23.90
2022-08-17T21:43:44.679Z,22.52
2022-08-17T21:46:30.432Z,21.58
2022-08-17T21:49:13.590Z,23.33
2022-08-17T21:51:53.679Z,23.80
2022-08-17T21:54:35.455Z,24.38
2022-08-17T21:57:05.606Z,24.60
2022-08-17T21:59:36.993Z,22.90
2022-08-17T22:02:16.360Z,24.75
2022-08-17T22:04:54.715Z,23.63
2022-08-17T22:07:38.524Z,25.98
2022-08-17T22:10:08.637Z,24.77
2022-08-17T22:12:35.587Z,24.10
2022-08-17T22:15:07.271Z,22.35
2022-08-17T22:17:40.026Z,23.50
2022-08-17T22:20:10.467Z,23.23
2022-08-17T22:23:17.636Z,21.40
2022-08-17T22:26:09.603Z,22.25
2022-08-17T22:28:45.611Z,22.50
2022-08-17T22:31:15.819Z,21.08
2022-08-17T22:33:47.161Z,23.55
2022-08-17T22:36:14.084Z,21.73
2022-08-17T22:38:43.469Z,22.23
2022-08-17T22:41:16.508Z,19.77
2022-08-17T22:43:44.730Z,20.67
2022-08-17T22:46:12.580Z,20.92
2022-08-17T22:48:52.165Z,19.88
2022-08-17T22:51:21.868Z,21.92
2022-08-17T22:54:10.364Z,20.50
2022-08-17T22:56:56.611Z,19.80
2022-08-17T22:59:45.253Z,20.45
2022-08-17T23:02:22.033Z,22.55
2022-08-17T23:05:16.566Z,20.17
2022-08-17T23:07:45.460Z,20.02
2022-08-17T23:10:13.865Z,21.33
2022-08-17T23:12:41.270Z,21.00
2022-08-17T23:15:15.132Z,20.20
2022-08-17T23:17:42.608Z,21.25
2022-08-17T23:20:18.221Z,20.13
2022-08-17T23:22:51.241Z,21.92
2022-08-17T23:25:26.365Z,20.55
2022-08-17T23:27:54.420Z,21.70
2022-08-17T23:30:24.942Z,22.75
2022-08-17T23:32:53.994Z,21.23
2022-08-17T23:35:40.578Z,22.15
2022-08-17T23:38:11.931Z,20.00
2022-08-17T23:40:39.914Z,24.25
2022-08-17T23:43:24.059Z,21.55
2022-08-17T23:45:57.930Z,21.60
2022-08-17T23:48:32.644Z,20.58
2022-08-17T23:51:09.589Z,19.10
2022-08-17T23:53:41.784Z,18.20
2022-08-17T23:56:11.228Z,18.50
2022-08-17T23:58:41.896Z,19.92
